• Join FlightAware (Why Join?)
  • Login
  • US Flag 
11:03PM EDT


 

Airport Tracker/Info


-or-


 

Live Flight TrackerFlight Track Log ✈ KAP945 ✈ 10-May-2013 ✈ KBOS - KALB

Flight Track Log - Related Links

Times and Time Zones

All times are in EDT time to prevent confusion due to time zone crossing. See the KAP945 flight status page for this flight to view local times or setup timezone preferences in your user account.

Time Position Orientation Groundspeed Altitude Reporting Facility
EDT Latitude Longitude Course Direction KTS MPH feet Rate Location/Type
09:09AM 42.3500 -71.0167 270° West 119 137 400  Level KA90
09:10AM 42.3500 -71.0667 270° West 122 140 1,100 600 Climbing KA90
09:11AM 42.3333 -71.1000 236° Southwest 120 138 1,600 540 Climbing KA90
09:12AM 42.3500 -71.1333 304° West 119 137 2,200 540 Climbing KA90
09:13AM 42.3500 -71.1833 270° West 117 135 2,800 540 Climbing KA90
09:14AM 42.3500 -71.2167 270° West 125 144 3,400 540 Climbing KA90
09:15AM 42.3500 -71.2667 270° West 126 145 3,900 420 Climbing KA90
09:16AM 42.3500 -71.3167 270° West 137 158 4,300 480 Climbing KA90
09:17AM 42.3333 -71.3667 246° West 127 146 5,000 600 Climbing KA90
09:18AM 42.3333 -71.4167 270° West 116 133 5,600 540 Climbing KA90
09:19AM 42.3167 -71.4500 236° Southwest 119 137 6,100 540 Climbing KA90
09:20AM 42.3153 -71.4939 268° West 128 147 6,500 660 Climbing Boston Center
09:21AM 42.3072 -71.5417 257° West 129 148 7,200 540 Climbing Boston Center
09:22AM 42.3014 -71.5894 261° West 123 142 7,700 420 Climbing Boston Center
09:23AM 42.2933 -71.6431 259° West 133 153 8,100 180 Climbing Boston Center
09:24AM 42.2875 -71.6908 261° West 161 185 8,100  Level Boston Center
09:25AM 42.2775 -71.7583 259° West 167 192 8,100  Level Boston Center
09:26AM 42.2675 -71.8200 258° West 171 197 8,100  Level Boston Center
09:27AM 42.2678 -71.8903 270° West 172 198 8,100  Level Boston Center
09:28AM 42.2700 -71.9519 273° West 168 193 8,100  Level Boston Center
09:29AM 42.2703 -72.0192 270° West 170 196 8,100  Level Boston Center
09:30AM 42.2706 -72.0753 270° West 171 197 8,100  Level Boston Center
09:31AM 42.2728 -72.1428 273° West 171 197 8,100 -60 Level Boston Center
09:32AM 42.2833 -72.2044 283° West 175 201 8,000  Descending Boston Center
09:33AM 42.2981 -72.2633 289° West 172 198 8,100  Climbing Boston Center
09:34AM 42.3067 -72.3250 281° West 169 194 8,100 -60 Level Boston Center
09:35AM 42.3003 -72.3867 262° West 172 198 8,000 -60 Descending Boston Center
09:36AM 42.3150 -72.4456 289° West 172 198 8,000  Level Boston Center
09:37AM 42.3358 -72.5047 295° West 173 199 8,100  Climbing Boston Center
09:38AM 42.3567 -72.5664 295° West 171 197 8,100  Level Boston Center
09:39AM 42.3772 -72.6256 295° West 172 198 8,100  Level Boston Center
09:40AM 42.4000 -72.6847 298° West 171 197 8,100  Level Boston Center
09:41AM 42.4189 -72.7411 294° West 171 197 8,100  Level Boston Center
09:42AM 42.4414 -72.8031 296° West 170 196 8,100  Level Boston Center
09:43AM 42.4478 -72.8200 297° West 169 194 8,100  Level Boston Center
09:44AM 42.4642 -72.8819 290° West 168 193 8,100 -120 Level Boston Center
09:45AM 42.4828 -72.9383 294° West 170 196 7,900 -180 Descending Boston Center
09:46AM 42.5033 -72.9950 296° West 174 200 7,800 -240 Descending Boston Center
09:47AM 42.5239 -73.0569 294° West 179 206 7,500 -300 Descending Boston Center
09:48AM 42.5464 -73.1250 294° West 184 212 7,300 -300 Descending Boston Center
09:49AM 42.5689 -73.1872 296° West 185 213 7,000 -300 Descending Boston Center
09:50AM 42.5892 -73.2522 293° West 186 214 6,800 -300 Descending Boston Center
09:51AM 42.6158 -73.3231 297° West 187 215 6,400 -600 Descending Boston Center
09:52AM 42.6383 -73.3856 296° West 175 201 5,500 -900 Descending Boston Center
09:53AM 42.6564 -73.4394 295° West 165 190 4,700 -840 Descending Boston Center
09:54AM 42.6789 -73.4936 299° West 164 189 4,000 -840 Descending Boston Center
09:55AM 42.6972 -73.5475 295° West 165 190 3,100 -780 Descending Boston Center
09:56AM 42.7172 -73.6156 292° West 169 194 2,400 -600 Descending Boston Center
09:57AM 42.7397 -73.6669 301° West 165 190 1,900 -660 Descending Boston Center
09:58AM 42.7494 -73.7294 282° West 162 186 1,100 -720 Descending Boston Center
09:59AM 42.7489 -73.7803 269° West 117 135 500 -600 Descending Boston Center
10:01AM 42.7333 -73.8000 292° West  Level FlightAware Approximate
10:08AM 42.7491 -73.8020 292° West  Level Estimated
10:09AM 42.7491 -73.8020 292° West  Level Estimated
10:10AM 42.7491 -73.8020 292° West  Level Estimated